Time;durP1;ratioP1;P1;durP2;ratioP2;P2;SDS_P1;SDS_P2;PMS_P1;PMS_P2;Temp;Humidity;BMP_temperature;BMP_pressure;BME280_temperature;BME280_humidity;BME280_pressure;Samples;Min_cycle;Max_cycle;Signal;HPM_P1;HPM_P2
2022/01/07 00:00:57;;;;;;;;;;;;;;;;;;;;;
2022/01/07 00:03:49;;;;;;;;;;;;;;;;;;;;;
2022/01/07 00:06:22;;;;;;;14.80;5.10;;;;;;;0.11;90.83;100953.20;107219;1287;62156;-80
2022/01/07 00:09:10;;;;;;;12.30;4.00;;;;;;;0.09;90.80;100947.05;107055;1287;75114;-81
2022/01/07 00:12:38;;;;;;;17.30;4.70;;;;;;;0.07;90.77;100945.48;106973;1288;70346;-81
2022/01/07 00:15:10;;;;;;;8.60;4.90;;;;;;;0.06;90.84;100944.85;107129;1286;73008;-81
2022/01/07 00:17:48;;;;;;;13.50;4.90;;;;;;;0.04;90.94;100947.36;107084;1287;61423;-80
2022/01/07 00:20:29;;;;;;;22.10;6.40;;;;;;;0.03;90.85;100944.67;107243;1287;61363;-81
2022/01/07 00:23:04;;;;;;;25.10;6.00;;;;;;;0.03;90.88;100942.23;107050;1288;76070;-80
2022/01/07 00:25:45;;;;;;;;;;;;;;;;;;;;;
2022/01/07 00:28:17;;;;;;;18.40;6.50;;;;;;;0.03;90.77;100934.61;107107;1287;72911;-80
2022/01/07 00:30:47;;;;;;;11.40;4.10;;;;;;;0.03;90.63;100931.27;107194;1287;62461;-80
2022/01/07 00:33:15;;;;;;;12.80;4.30;;;;;;;0.05;90.68;100927.02;107009;1282;61597;-79
2022/01/07 00:35:46;;;;;;;20.30;5.50;;;;;;;0.05;90.72;100924.02;107056;1289;77662;-81
2022/01/07 00:38:29;;;;;;;19.70;5.70;;;;;;;0.06;90.60;100925.17;107031;1290;70689;-81
2022/01/07 00:41:05;;;;;;;14.70;5.50;;;;;;;0.09;90.57;100923.96;106954;1290;74197;-80
2022/01/07 00:43:32;;;;;;;19.10;6.50;;;;;;;0.10;90.43;100921.23;107092;1290;61460;-80
2022/01/07 00:46:02;;;;;;;23.10;6.10;;;;;;;0.12;90.42;100919.55;106990;1290;60446;-81
2022/01/07 00:48:29;;;;;;;13.00;5.50;;;;;;;0.14;90.37;100917.88;107044;1290;76101;-81
2022/01/07 00:50:58;;;;;;;21.00;6.60;;;;;;;0.16;90.04;100917.71;107067;1289;71631;-80
2022/01/07 00:53:29;;;;;;;16.70;5.10;;;;;;;0.18;90.33;100912.89;107010;1289;72914;-81
2022/01/07 00:56:09;;;;;;;18.50;6.10;;;;;;;0.19;90.14;100909.54;107020;1289;62693;-80
2022/01/07 00:58:36;;;;;;;11.80;5.10;;;;;;;0.19;89.94;100904.47;107053;1289;60666;-81
2022/01/07 01:01:19;;;;;;;20.10;5.50;;;;;;;0.19;90.02;100900.64;107015;1290;75120;-81
2022/01/07 01:03:49;;;;;;;10.60;3.90;;;;;;;0.19;89.83;100897.52;107008;1290;71633;-81
2022/01/07 01:06:18;;;;;;;15.30;5.20;;;;;;;0.19;90.00;100889.00;107000;1290;72907;-80
2022/01/07 01:08:45;;;;;;;23.70;6.20;;;;;;;0.21;89.95;100881.58;107033;1290;62020;-80
2022/01/07 01:11:14;;;;;;;17.80;4.80;;;;;;;0.23;89.77;100886.31;107107;1290;61835;-80
2022/01/07 01:13:41;;;;;;;19.90;5.50;;;;;;;0.25;89.84;100882.35;107030;1288;76265;-80
2022/01/07 01:16:11;;;;;;;11.30;4.20;;;;;;;0.27;89.65;100877.33;107193;1288;72921;-81
2022/01/07 01:18:38;;;;;;;11.50;4.00;;;;;;;0.29;89.40;100875.23;107059;1289;72818;-80
2022/01/07 01:21:14;;;;;;;13.20;5.20;;;;;;;0.32;89.31;100870.55;106940;1288;61417;-81
2022/01/07 01:23:45;;;;;;;16.00;4.90;;;;;;;0.32;89.10;100867.73;107163;1288;62149;-80
2022/01/07 01:26:19;;;;;;;8.50;1.30;;;;;;;0.31;88.93;100867.82;107153;1287;75108;-80
2022/01/07 01:28:50;;;;;;;9.20;3.80;;;;;;;0.29;89.04;100867.06;107107;1288;71383;-80
2022/01/07 01:31:26;;;;;;;11.50;3.70;;;;;;;0.29;89.00;100861.18;107123;1287;74168;-80
2022/01/07 01:33:53;;;;;;;13.40;5.00;;;;;;;0.29;89.15;100858.20;107122;1288;61631;-80
2022/01/07 01:36:24;;;;;;;13.70;3.80;;;;;;;0.28;89.11;100850.84;107096;1288;62301;-80
2022/01/07 01:39:08;;;;;;;20.70;6.10;;;;;;;0.28;89.29;100845.64;106958;1290;75037;-80
2022/01/07 01:41:35;;;;;;;18.90;6.00;;;;;;;0.27;89.04;100841.16;107027;1290;71482;-80
2022/01/07 01:44:15;;;;;;;21.30;6.80;;;;;;;0.26;89.20;100838.23;106814;1290;73000;-80
2022/01/07 01:46:42;;;;;;;17.00;5.30;;;;;;;0.28;89.50;100834.64;107072;1288;61516;-80
2022/01/07 01:49:14;;;;;;;8.20;3.10;;;;;;;0.32;89.38;100834.70;107070;1289;61968;-80
2022/01/07 01:51:43;;;;;;;12.60;3.60;;;;;;;0.35;89.30;100825.77;107055;1288;76145;-80
2022/01/07 01:54:09;;;;;;;11.80;3.40;;;;;;;0.41;88.93;100818.61;107103;1286;72606;-79
2022/01/07 01:56:36;;;;;;;12.70;3.00;;;;;;;0.46;88.76;100809.91;107009;1289;72846;-80
2022/01/07 01:59:03;;;;;;;8.50;3.40;;;;;;;0.52;88.52;100805.85;107102;1290;61498;-81
2022/01/07 02:01:30;;;;;;;19.10;4.20;;;;;;;0.55;88.14;100802.48;107003;1290;60621;-80
2022/01/07 02:04:03;;;;;;;8.50;3.50;;;;;;;0.58;88.24;100799.80;106983;1290;75965;-81
2022/01/07 02:06:30;;;;;;;15.50;4.40;;;;;;;0.60;87.95;100795.90;107085;1288;71256;-80
2022/01/07 02:08:59;;;;;;;18.40;4.90;;;;;;;0.60;88.05;100794.15;107013;1288;74134;-80
2022/01/07 02:11:31;;;;;;;11.60;3.60;;;;;;;0.60;88.13;100794.48;107015;1289;62915;-80
2022/01/07 02:14:16;;;;;;;12.30;4.00;;;;;;;0.59;87.87;100793.88;107094;1289;61579;-80
2022/01/07 02:16:45;;;;;;;14.30;4.50;;;;;;;0.57;88.11;100793.13;106952;1289;75947;-81
2022/01/07 02:21:48;;;;;;;15.10;5.80;;;;;;;0.55;88.36;100774.83;106987;1278;71346;-81
2022/01/07 02:24:28;;;;;;;18.50;6.10;;;;;;;0.57;88.60;100770.70;106840;1277;63970;-79
2022/01/07 02:27:01;;;;;;;13.70;2.60;;;;;;;0.58;88.71;100762.13;107147;1288;61696;-80
2022/01/07 02:29:34;;;;;;;7.50;2.90;;;;;;;0.59;88.70;100765.88;107129;1287;76416;-80
2022/01/07 02:32:07;;;;;;;7.40;2.50;;;;;;;0.60;88.90;100762.11;107135;1287;71191;-80
2022/01/07 02:34:57;;;;;;;4.80;1.70;;;;;;;0.63;89.18;100758.24;106901;1290;74470;-80
2022/01/07 02:38:06;;;;;;;16.00;4.70;;;;;;;0.68;89.17;100757.94;106779;1290;62624;-80
2022/01/07 02:40:34;;;;;;;5.50;2.90;;;;;;;0.74;89.13;100744.61;106921;1289;60641;-80
2022/01/07 02:43:07;;;;;;;9.10;3.50;;;;;;;0.78;89.02;100735.58;106993;1290;74715;-80
2022/01/07 02:45:34;;;;;;;10.90;3.80;;;;;;;0.83;88.68;100729.88;106947;1278;72705;-78
2022/01/07 02:48:03;;;;;;;10.70;2.90;;;;;;;0.86;88.62;100722.52;107074;1278;75671;-80
2022/01/07 02:50:34;;;;;;;10.30;3.30;;;;;;;0.90;88.49;100717.65;107029;1288;61067;-80
2022/01/07 02:53:14;;;;;;;10.80;3.60;;;;;;;0.93;88.33;100714.14;106961;1288;60840;-80
2022/01/07 02:55:41;;;;;;;13.10;3.30;;;;;;;0.96;88.19;100710.44;107100;1285;76046;-79
2022/01/07 02:58:09;;;;;;;14.70;5.10;;;;;;;0.98;88.07;100711.88;106948;1285;71364;-80
2022/01/07 03:00:40;;;;;;;9.40;3.70;;;;;;;1.00;88.06;100704.21;107059;1288;74288;-80
2022/01/07 03:03:09;;;;;;;9.50;2.60;;;;;;;1.02;87.76;100697.45;106819;1287;60499;-80
2022/01/07 03:05:41;;;;;;;17.30;4.20;;;;;;;1.07;87.54;100691.69;107023;1288;60701;-81
2022/01/07 03:08:13;;;;;;;8.80;2.30;;;;;;;1.10;87.38;100682.60;107176;1288;76175;-80
2022/01/07 03:10:42;;;;;;;7.60;2.90;;;;;;;1.14;87.12;100681.98;107162;1288;72845;-80
2022/01/07 03:13:15;;;;;;;9.00;2.90;;;;;;;1.17;86.82;100680.15;107003;1288;73156;-80
2022/01/07 03:15:45;;;;;;;10.30;3.70;;;;;;;1.18;86.56;100678.84;107180;1288;61009;-80
2022/01/07 03:18:15;;;;;;;9.20;2.30;;;;;;;1.20;86.37;100675.54;107036;1288;61355;-80
2022/01/07 03:21:30;;;;;;;12.70;3.50;;;;;;;1.23;86.04;100671.17;107144;1288;75174;-81
2022/01/07 03:23:56;;;;;;;10.70;3.80;;;;;;;1.25;85.90;100671.92;107023;1288;71507;-80
2022/01/07 03:26:23;;;;;;;14.40;3.80;;;;;;;1.26;85.84;100669.40;107147;1287;71970;-80
2022/01/07 03:28:52;;;;;;;19.50;5.30;;;;;;;1.27;85.63;100666.33;107166;1286;61519;-80
2022/01/07 03:31:20;;;;;;;10.90;3.80;;;;;;;1.28;85.45;100659.80;107198;1287;60794;-80
2022/01/07 03:33:46;;;;;;;11.10;3.10;;;;;;;1.28;85.36;100654.62;107031;1278;74876;-80
2022/01/07 03:36:24;;;;;;;;;;;;;;;;;;;;;
2022/01/07 03:41:30;;;;;;;16.70;2.60;;;;;;;1.30;85.48;100636.33;107034;1278;59979;-82
2022/01/07 03:44:05;;;;;;;11.20;3.20;;;;;;;1.31;84.96;100627.76;107144;1279;60807;-81
2022/01/07 03:46:32;;;;;;;7.50;2.20;;;;;;;1.34;85.01;100619.15;107087;1288;76291;-80
2022/01/07 03:49:08;;;;;;;10.10;2.90;;;;;;;1.35;84.51;100620.45;106993;1288;71423;-80
2022/01/07 03:51:41;;;;;;;7.90;2.20;;;;;;;1.37;84.19;100612.10;106826;1288;74712;-80
2022/01/07 03:54:30;;;;;;;8.40;3.00;;;;;;;1.39;84.12;100610.73;107161;1288;61227;-80
2022/01/07 03:56:59;;;;;;;12.50;3.50;;;;;;;1.39;83.89;100606.85;107222;1286;60625;-80
2022/01/07 03:59:27;;;;;;;11.30;3.60;;;;;;;1.41;83.77;100600.96;107147;1288;76234;-80
2022/01/07 04:02:03;;;;;;;11.70;3.90;;;;;;;1.43;83.80;100599.61;107041;1288;71405;-81
2022/01/07 04:04:30;;;;;;;15.50;3.70;;;;;;;1.45;83.46;100593.04;107194;1287;73924;-81
2022/01/07 04:06:57;;;;;;;9.80;2.70;;;;;;;1.47;83.17;100591.95;106891;1290;61609;-80
2022/01/07 04:09:24;;;;;;;9.70;2.70;;;;;;;1.49;82.94;100585.08;107159;1287;60760;-80
2022/01/07 04:11:54;;;;;;;15.40;2.80;;;;;;;1.50;83.05;100588.48;107102;1288;75961;-80
2022/01/07 04:14:25;;;;;;;12.00;2.70;;;;;;;1.51;83.10;100590.33;107070;1287;72939;-82
2022/01/07 04:16:53;;;;;;;5.00;2.50;;;;;;;1.53;83.23;100589.98;107095;1288;73001;-80
2022/01/07 04:19:19;;;;;;;10.30;2.80;;;;;;;1.52;83.33;100586.88;107206;1286;62647;-80
2022/01/07 04:26:57;;;;;;;10.80;3.20;;;;;;;1.50;83.44;100569.07;107079;1278;59214;-81
2022/01/07 04:29:38;;;;;;;5.30;2.10;;;;;;;1.50;83.51;100570.52;106994;1278;73307;-80
2022/01/07 04:32:12;;;;;;;8.10;3.80;;;;;;;1.49;83.59;100568.63;107168;1278;63631;-80
2022/01/07 04:34:42;;;;;;;10.20;2.80;;;;;;;1.49;83.51;100565.34;107041;1278;60678;-80
2022/01/07 04:37:19;;;;;;;12.20;3.80;;;;;;;1.48;83.58;100562.27;107056;1290;75047;-80
2022/01/07 04:39:48;;;;;;;8.30;3.20;;;;;;;1.46;83.60;100557.93;106928;1288;71264;-80
2022/01/07 04:42:17;;;;;;;15.20;3.40;;;;;;;1.46;83.48;100561.09;107066;1290;73046;-80
2022/01/07 04:44:44;;;;;;;10.10;3.80;;;;;;;1.46;83.56;100559.80;107063;1288;62552;-80
2022/01/07 04:47:13;;;;;;;12.10;3.20;;;;;;;1.46;83.52;100557.77;107067;1281;60725;-79
2022/01/07 04:49:50;;;;;;;9.10;2.90;;;;;;;1.47;83.49;100554.58;107016;1278;77627;-80
2022/01/07 04:52:17;;;;;;;10.50;3.50;;;;;;;1.45;83.74;100550.13;106894;1278;74152;-79
2022/01/07 04:54:44;;;;;;;11.80;3.30;;;;;;;1.44;83.71;100545.17;107142;1275;74089;-80
2022/01/07 04:59:36;;;;;;;16.60;4.40;;;;;;;1.46;83.56;100543.95;107062;1278;59050;-80
2022/01/07 05:02:12;;;;;;;12.80;3.90;;;;;;;1.47;83.58;100533.62;107181;1278;58499;-81
2022/01/07 05:04:45;;;;;;;5.70;3.00;;;;;;;1.48;83.55;100532.16;107034;1275;70363;-79
2022/01/07 05:07:16;;;;;;;10.00;3.80;;;;;;;1.47;83.52;100529.75;107069;1278;73792;-79
2022/01/07 05:09:43;;;;;;;10.90;4.20;;;;;;;1.48;83.72;100528.34;107152;1288;59988;-80
2022/01/07 05:12:10;;;;;;;8.90;4.00;;;;;;;1.47;83.66;100532.41;107157;1288;60822;-80
2022/01/07 05:14:37;;;;;;;19.30;4.20;;;;;;;1.47;83.68;100529.22;106914;1288;75080;-81
2022/01/07 05:17:12;;;;;;;13.10;3.40;;;;;;;1.47;83.57;100527.87;107131;1288;72961;-81
2022/01/07 05:19:42;;;;;;;14.30;3.90;;;;;;;1.47;83.43;100531.67;107164;1288;73467;-81
2022/01/07 05:22:14;;;;;;;12.40;4.50;;;;;;;1.47;83.67;100529.08;107097;1278;61411;-80
2022/01/07 05:24:43;;;;;;;17.70;4.80;;;;;;;1.47;83.57;100523.83;106980;1277;59697;-79
2022/01/07 05:29:35;;;;;;;9.90;3.80;;;;;;;1.46;83.89;100518.85;107143;1277;60186;-79
2022/01/07 05:34:38;;;;;;;11.30;3.80;;;;;;;1.47;83.70;100507.30;107025;1281;62462;-79
2022/01/07 05:37:14;;;;;;;;;;;;;;;;;;;;;
2022/01/07 05:39:37;;;;;;;8.20;2.90;;;;;;;1.49;83.76;100496.15;106957;1278;74816;-79
2022/01/07 05:42:11;;;;;;;10.20;5.60;;;;;;;1.51;83.68;100494.63;107184;1278;71272;-80
2022/01/07 05:44:38;;;;;;;9.70;4.30;;;;;;;1.52;83.76;100493.84;107230;1287;73226;-80
2022/01/07 05:47:08;;;;;;;7.20;3.60;;;;;;;1.52;83.63;100487.23;107194;1287;59876;-80
2022/01/07 05:49:35;;;;;;;15.60;4.30;;;;;;;1.53;83.88;100481.95;107271;1287;61829;-80
2022/01/07 05:52:06;;;;;;;15.60;3.70;;;;;;;1.52;83.58;100478.48;107280;1287;74989;-80
2022/01/07 05:54:33;;;;;;;7.70;4.00;;;;;;;1.53;83.46;100472.30;107134;1287;72594;-80
2022/01/07 05:57:00;;;;;;;8.90;4.00;;;;;;;1.53;83.38;100464.10;107112;1278;72227;-78
2022/01/07 05:59:32;;;;;;;11.30;4.10;;;;;;;1.54;83.45;100460.20;107209;1287;60522;-79
2022/01/07 06:02:01;;;;;;;11.80;3.60;;;;;;;1.55;83.39;100455.97;107196;1287;63322;-79
2022/01/07 06:04:48;;;;;;;7.80;3.10;;;;;;;1.55;83.18;100454.05;107318;1287;76322;-80
2022/01/07 06:07:17;;;;;;;7.00;3.20;;;;;;;1.55;83.36;100453.70;107237;1287;72722;-82
2022/01/07 06:09:44;;;;;;;5.70;2.60;;;;;;;1.55;83.37;100446.90;107262;1287;74050;-80
2022/01/07 06:12:13;;;;;;;7.00;3.20;;;;;;;1.54;83.44;100444.55;107235;1287;61820;-79
2022/01/07 06:14:40;;;;;;;10.00;4.00;;;;;;;1.52;83.71;100444.30;107253;1287;60639;-80
2022/01/07 06:17:10;;;;;;;8.90;3.60;;;;;;;1.51;83.80;100447.00;107104;1278;75157;-79
2022/01/07 06:19:37;;;;;;;8.80;3.90;;;;;;;1.51;83.90;100445.47;107141;1286;71678;-79
2022/01/07 06:22:08;;;;;;;8.30;3.50;;;;;;;1.51;83.90;100441.65;107187;1283;76328;-80
2022/01/07 06:24:35;;;;;;;13.20;4.00;;;;;;;1.51;84.00;100445.13;107275;1287;61436;-82
2022/01/07 06:32:10;;;;;;;10.10;3.40;;;;;;;1.50;84.14;100439.14;106824;1278;71531;-78
2022/01/07 06:34:37;;;;;;;11.70;3.90;;;;;;;1.46;84.33;100438.34;106886;1278;75862;-78
2022/01/07 06:37:04;;;;;;;8.80;3.80;;;;;;;1.47;84.30;100444.38;107062;1278;61616;-80
2022/01/07 06:39:32;;;;;;;11.20;2.90;;;;;;;1.46;84.56;100442.73;107135;1287;60312;-80
2022/01/07 06:41:59;;;;;;;15.00;4.00;;;;;;;1.44;84.84;100436.94;107144;1287;75336;-79
2022/01/07 06:44:26;;;;;;;6.10;3.00;;;;;;;1.43;85.13;100442.61;107140;1287;71417;-79
2022/01/07 06:46:53;;;;;;;7.20;2.80;;;;;;;1.40;85.39;100441.96;107149;1287;72969;-78
2022/01/07 06:49:20;;;;;;;8.20;3.10;;;;;;;1.39;85.51;100441.15;106977;1287;61479;-79
2022/01/07 06:51:46;;;;;;;7.80;3.00;;;;;;;1.39;85.52;100442.10;107011;1288;59182;-79
2022/01/07 06:54:18;;;;;;;7.30;3.10;;;;;;;1.38;85.59;100444.77;107091;1278;73938;-78
2022/01/07 06:56:49;;;;;;;10.20;4.10;;;;;;;1.37;85.81;100442.36;106791;1278;72470;-79
2022/01/07 06:59:16;;;;;;;7.70;3.60;;;;;;;1.37;86.10;100444.15;106822;1278;73151;-77
2022/01/07 07:01:47;;;;;;;14.80;4.50;;;;;;;1.37;86.33;100444.86;106947;1277;62663;-79
2022/01/07 07:04:16;;;;;;;14.10;4.40;;;;;;;1.36;86.43;100444.53;107016;1278;64198;-80
2022/01/07 07:06:43;;;;;;;14.00;6.00;;;;;;;1.37;86.86;100445.92;107159;1287;74944;-78
2022/01/07 07:09:10;;;;;;;10.20;4.30;;;;;;;1.36;87.28;100449.13;107122;1287;72908;-80
2022/01/07 07:11:37;;;;;;;10.10;3.80;;;;;;;1.34;87.45;100446.98;107097;1287;72982;-76
2022/01/07 07:14:03;;;;;;;9.20;4.50;;;;;;;1.33;88.18;100446.05;107024;1287;61505;-76
2022/01/07 07:16:30;;;;;;;7.60;2.90;;;;;;;1.33;88.62;100445.13;107130;1287;59047;-75
2022/01/07 07:18:57;;;;;;;11.50;4.50;;;;;;;1.33;88.63;100448.82;107116;1286;76130;-75
2022/01/07 07:21:23;;;;;;;5.60;2.90;;;;;;;1.31;89.02;100445.15;107137;1287;59562;-75
2022/01/07 07:23:49;;;;;;;12.00;4.80;;;;;;;1.29;89.40;100439.39;107141;1287;59075;-75
2022/01/07 07:26:16;;;;;;;12.20;4.40;;;;;;;1.26;89.64;100444.12;107112;1287;59270;-75
2022/01/07 07:28:44;;;;;;;10.70;5.20;;;;;;;1.24;89.93;100440.79;106863;1287;59350;-75
2022/01/07 07:31:14;;;;;;;12.80;6.00;;;;;;;1.22;90.36;100437.50;107105;1287;75095;-76
2022/01/07 07:36:27;;;;;;;11.40;4.00;;;;;;;1.17;90.81;100432.78;106915;1290;74289;-74
2022/01/07 07:38:54;;;;;;;7.50;4.00;;;;;;;1.14;91.39;100435.69;106923;1290;61483;-75
2022/01/07 07:41:21;;;;;;;11.70;5.80;;;;;;;1.10;91.64;100431.81;107005;1289;60585;-75
2022/01/07 07:43:49;;;;;;;14.30;5.50;;;;;;;1.06;92.27;100432.29;107000;1290;60730;-75
2022/01/07 07:46:17;;;;;;;14.40;5.70;;;;;;;1.01;92.75;100429.19;106979;1289;71354;-75
2022/01/07 07:48:46;;;;;;;11.40;5.70;;;;;;;0.98;93.13;100428.76;106980;1289;74875;-75
2022/01/07 07:51:16;;;;;;;10.90;4.80;;;;;;;0.95;93.76;100428.45;107013;1289;62470;-77
2022/01/07 07:53:45;;;;;;;9.10;4.90;;;;;;;0.93;94.21;100422.52;107036;1290;61426;-76
2022/01/07 07:56:13;;;;;;;9.40;3.40;;;;;;;0.92;94.53;100415.27;106992;1289;75137;-74
2022/01/07 07:58:40;;;;;;;12.30;4.80;;;;;;;0.91;94.64;100417.96;107025;1290;71522;-75
2022/01/07 08:01:07;;;;;;;14.10;6.50;;;;;;;0.91;94.58;100416.23;106952;1290;73976;-75
2022/01/07 08:03:34;;;;;;;8.60;3.80;;;;;;;0.91;94.96;100412.56;106958;1290;61392;-74
2022/01/07 08:06:00;;;;;;;12.90;5.90;;;;;;;0.91;94.90;100408.60;106940;1290;61797;-76
2022/01/07 08:08:28;;;;;;;9.00;5.70;;;;;;;0.90;95.25;100410.01;106867;1290;76502;-75
2022/01/07 08:10:58;;;;;;;16.40;5.60;;;;;;;0.92;95.65;100405.04;106947;1289;71455;-75
2022/01/07 08:15:57;;;;;;;9.50;4.90;;;;;;;0.90;96.09;100405.66;106984;1290;74420;-74
2022/01/07 08:16:19;;;;;;;14.00;5.20;;;;;;;0.91;96.23;100400.94;106882;1289;60870;-75
2022/01/07 08:18:54;;;;;;;12.60;6.30;;;;;;;0.92;96.25;100403.96;107001;1289;60642;-76
2022/01/07 08:21:24;;;;;;;9.50;4.60;;;;;;;0.93;96.63;100402.84;106949;1289;76014;-75
2022/01/07 08:23:53;;;;;;;8.90;4.60;;;;;;;0.92;96.57;100402.20;106976;1289;71496;-77
2022/01/07 08:26:20;;;;;;;7.80;5.30;;;;;;;0.93;96.55;100392.20;106976;1289;74069;-77
2022/01/07 08:28:51;;;;;;;13.10;4.40;;;;;;;0.95;96.34;100393.42;106911;1290;62528;-75
2022/01/07 08:36:33;;;;;;;6.20;3.80;;;;;;;1.02;96.26;100395.88;106956;1290;73603;-76
2022/01/07 08:39:00;;;;;;;6.50;3.40;;;;;;;1.06;96.00;100398.13;106965;1288;72922;-78
2022/01/07 08:41:29;;;;;;;12.00;3.90;;;;;;;1.10;95.60;100402.55;106681;1290;62333;-76
2022/01/07 08:43:56;;;;;;;7.50;3.30;;;;;;;1.14;95.23;100397.38;107008;1289;60763;-77
2022/01/07 08:46:23;;;;;;;8.00;3.00;;;;;;;1.18;94.45;100396.48;107008;1290;75399;-76
2022/01/07 08:48:50;;;;;;;6.40;3.30;;;;;;;1.23;94.39;100386.00;106906;1290;71445;-77
2022/01/07 08:51:17;;;;;;;4.00;2.50;;;;;;;1.28;94.25;100389.13;106934;1289;71946;-75
2022/01/07 08:53:47;;;;;;;5.30;3.10;;;;;;;1.31;93.70;100393.77;106933;1290;61875;-80
2022/01/07 08:56:16;;;;;;;6.50;3.50;;;;;;;1.33;93.35;100390.45;106959;1288;58833;-78
2022/01/07 08:58:43;;;;;;;9.40;3.50;;;;;;;1.37;93.47;100384.42;106923;1290;73824;-76
2022/01/07 09:01:10;;;;;;;8.30;3.20;;;;;;;1.38;92.88;100390.21;107002;1290;72371;-80
2022/01/07 09:03:37;;;;;;;8.60;3.60;;;;;;;1.42;92.51;100387.94;106896;1289;73064;-79
2022/01/07 09:06:03;;;;;;;11.30;4.10;;;;;;;1.46;92.59;100386.23;106956;1289;59172;-76
2022/01/07 09:08:31;;;;;;;5.40;3.50;;;;;;;1.50;92.39;100384.89;106890;1289;60340;-75
2022/01/07 09:10:57;;;;;;;6.00;3.00;;;;;;;1.53;91.79;100389.37;106964;1288;75995;-76
2022/01/07 09:13:24;;;;;;;5.80;2.10;;;;;;;1.59;91.62;100381.58;106944;1290;72562;-75
2022/01/07 09:15:50;;;;;;;9.10;4.10;;;;;;;1.60;91.25;100386.52;106915;1289;59123;-78
2022/01/07 09:18:18;;;;;;;5.30;3.10;;;;;;;1.65;90.98;100381.94;106952;1290;62240;-73
2022/01/07 09:20:45;;;;;;;11.10;3.20;;;;;;;1.69;90.74;100375.56;106998;1289;60299;-75
2022/01/07 09:23:13;;;;;;;10.80;4.30;;;;;;;1.72;90.70;100382.60;106974;1289;76108;-75
2022/01/07 09:25:40;;;;;;;7.00;3.40;;;;;;;1.72;90.29;100383.69;106966;1288;72578;-75
2022/01/07 09:28:08;;;;;;;6.30;3.30;;;;;;;1.72;90.24;100381.90;106963;1289;72981;-79
2022/01/07 09:30:36;;;;;;;6.00;3.50;;;;;;;1.73;90.05;100386.70;106870;1290;61508;-75
2022/01/07 09:33:03;;;;;;;4.40;2.30;;;;;;;1.74;90.12;100378.25;106952;1289;60353;-77
2022/01/07 09:35:30;;;;;;;7.90;3.00;;;;;;;1.76;90.07;100386.46;106983;1289;76257;-78
2022/01/07 09:37:57;;;;;;;6.70;3.40;;;;;;;1.77;90.02;100381.85;106912;1289;71306;-79
2022/01/07 09:40:24;;;;;;;7.80;3.00;;;;;;;1.78;90.14;100380.19;106971;1289;59004;-75
2022/01/07 09:42:59;;;;;;;8.90;3.40;;;;;;;1.78;89.94;100375.14;106953;1289;61014;-76
2022/01/07 09:45:26;;;;;;;;;;;;;;;1.81;90.13;100379.05;107001;1288;62005;-79
2022/01/07 09:47:54;;;;;;;7.50;2.40;;;;;;;1.84;90.03;100376.92;106950;1289;74977;-75
2022/01/07 09:50:23;;;;;;;7.20;3.20;;;;;;;1.86;89.91;100370.48;106964;1289;70557;-77
2022/01/07 09:52:50;;;;;;;6.40;2.40;;;;;;;1.90;89.81;100370.69;106720;1289;74027;-75
2022/01/07 09:55:17;;;;;;;6.10;3.30;;;;;;;1.92;89.67;100373.40;106902;1289;58955;-77
2022/01/07 09:57:44;;;;;;;7.00;3.30;;;;;;;1.99;89.34;100375.27;106946;1290;61616;-77
2022/01/07 10:00:11;;;;;;;10.40;3.10;;;;;;;2.06;89.12;100378.78;106960;1289;73922;-75
2022/01/07 10:02:38;;;;;;;6.80;2.90;;;;;;;2.12;88.85;100383.89;107005;1289;71714;-77
2022/01/07 10:05:18;;;;;;;6.20;3.10;;;;;;;2.15;88.62;100381.49;107002;1289;72883;-75
2022/01/07 10:07:44;;;;;;;6.70;3.30;;;;;;;2.15;88.42;100385.88;106990;1290;59927;-75
2022/01/07 10:10:14;;;;;;;4.90;2.70;;;;;;;2.14;88.13;100383.33;106969;1290;60836;-79
2022/01/07 10:12:48;;;;;;;6.70;3.20;;;;;;;2.10;88.47;100391.48;106888;1288;76019;-75
2022/01/07 10:15:19;;;;;;;7.60;3.20;;;;;;;2.09;88.61;100379.41;107010;1290;71737;-76
2022/01/07 10:18:03;;;;;;;5.90;2.40;;;;;;;2.05;88.83;100374.85;107000;1289;73016;-78
2022/01/07 10:20:36;;;;;;;4.30;2.00;;;;;;;2.07;88.76;100369.27;106969;1290;59867;-75
2022/01/07 10:23:24;;;;;;;6.40;3.20;;;;;;;2.07;88.94;100374.71;106999;1289;61717;-75
2022/01/07 10:25:56;;;;;;;6.40;2.80;;;;;;;2.07;89.00;100366.84;106969;1289;75101;-75
2022/01/07 10:28:29;;;;;;;3.40;1.90;;;;;;;2.09;89.12;100364.05;106864;1289;72468;-77
2022/01/07 10:30:56;;;;;;;4.80;2.60;;;;;;;2.10;88.94;100365.92;106808;1290;71511;-78
2022/01/07 10:33:24;;;;;;;5.40;2.60;;;;;;;2.11;88.66;100361.44;106891;1289;59547;-76
2022/01/07 10:35:52;;;;;;;6.90;3.30;;;;;;;2.11;88.77;100357.45;106925;1289;60817;-75
2022/01/07 10:38:29;;;;;;;5.50;2.80;;;;;;;2.13;89.15;100357.92;106950;1290;76068;-78
2022/01/07 10:40:59;;;;;;;6.20;2.90;;;;;;;2.13;89.04;100358.25;106874;1290;70335;-74
2022/01/07 10:43:35;;;;;;;4.10;2.60;;;;;;;2.16;89.27;100358.75;106869;1290;72852;-77
2022/01/07 10:46:13;;;;;;;5.70;2.70;;;;;;;2.20;89.24;100359.82;106933;1290;62546;-78
2022/01/07 10:48:46;;;;;;;5.30;2.90;;;;;;;2.22;89.29;100360.50;106959;1290;61372;-75
2022/01/07 10:51:18;;;;;;;5.50;2.50;;;;;;;2.23;89.42;100363.05;106942;1289;74906;-78
2022/01/07 10:53:59;;;;;;;4.90;2.40;;;;;;;2.22;89.50;100365.86;106885;1288;71595;-75
2022/01/07 10:56:31;;;;;;;6.30;2.90;;;;;;;2.21;89.75;100364.72;106807;1290;72989;-77
2022/01/07 10:59:03;;;;;;;6.00;3.10;;;;;;;2.19;89.65;100361.93;106858;1290;62345;-75
2022/01/07 11:01:46;;;;;;;6.80;3.10;;;;;;;2.18;89.86;100365.17;106949;1288;61438;-75
2022/01/07 11:04:26;;;;;;;6.40;2.70;;;;;;;2.18;90.03;100364.19;106757;1290;76018;-78
2022/01/07 11:06:56;;;;;;;5.50;2.90;;;;;;;2.16;90.29;100366.21;106968;1288;72948;-77
2022/01/07 11:09:23;;;;;;;8.50;3.30;;;;;;;2.14;90.16;100370.91;106803;1289;74250;-77
2022/01/07 11:11:57;;;;;;;4.90;2.30;;;;;;;2.12;90.34;100374.59;106951;1290;62723;-77
2022/01/07 11:14:28;;;;;;;4.80;3.20;;;;;;;2.08;90.55;100368.30;106900;1290;60655;-75
2022/01/07 11:16:58;;;;;;;6.60;3.20;;;;;;;2.06;90.52;100368.98;106936;1289;76430;-78
2022/01/07 11:19:33;;;;;;;6.00;3.30;;;;;;;2.04;90.65;100363.74;106932;1289;71319;-75
2022/01/07 11:22:00;;;;;;;6.80;3.10;;;;;;;2.01;90.86;100367.23;106943;1289;74534;-75
2022/01/07 11:25:06;;;;;;;6.60;3.70;;;;;;;2.01;90.90;100359.23;106910;1290;61219;-78
2022/01/07 11:27:47;;;;;;;5.50;3.70;;;;;;;2.03;91.21;100362.10;106894;1290;60653;-78
2022/01/07 11:30:17;;;;;;;8.10;3.40;;;;;;;2.05;91.34;100356.01;106704;1290;75066;-78
2022/01/07 11:32:52;;;;;;;7.80;3.40;;;;;;;2.07;91.07;100353.90;106701;1290;71394;-77
2022/01/07 11:35:23;;;;;;;6.30;3.50;;;;;;;2.12;91.16;100345.83;106766;1289;73002;-77
2022/01/07 11:37:57;;;;;;;7.80;3.10;;;;;;;2.14;90.92;100344.64;106861;1290;61638;-75
2022/01/07 11:40:33;;;;;;;4.50;3.00;;;;;;;2.15;90.96;100338.39;106939;1290;60707;-76
2022/01/07 11:43:19;;;;;;;4.60;2.70;;;;;;;2.17;90.72;100337.68;106930;1289;74647;-76
2022/01/07 11:45:48;;;;;;;6.50;3.70;;;;;;;2.23;90.62;100339.33;106861;1290;72432;-75
2022/01/07 11:48:20;;;;;;;4.60;2.90;;;;;;;2.26;90.38;100337.45;106895;1290;72599;-75
2022/01/07 11:50:56;;;;;;;8.00;4.00;;;;;;;2.30;90.26;100333.83;106895;1289;61342;-75
2022/01/07 11:53:29;;;;;;;4.70;2.80;;;;;;;2.32;90.09;100335.92;106931;1289;61411;-76
2022/01/07 11:55:58;;;;;;;;;;;;;;;2.33;89.99;100333.19;106955;1290;76403;-78
2022/01/07 11:58:38;;;;;;;6.50;3.30;;;;;;;2.34;89.88;100329.81;106926;1288;70923;-77
2022/01/07 12:01:06;;;;;;;7.60;2.60;;;;;;;2.36;89.64;100329.83;106756;1290;73269;-77
2022/01/07 12:03:39;;;;;;;8.00;3.30;;;;;;;2.37;89.63;100326.98;106697;1290;59886;-75
2022/01/07 12:06:38;;;;;;;7.00;2.90;;;;;;;2.38;89.57;100331.73;106906;1290;60436;-75
2022/01/07 12:09:20;;;;;;;5.80;3.30;;;;;;;2.39;89.48;100333.71;106945;1290;75036;-75
2022/01/07 12:11:56;;;;;;;5.90;3.60;;;;;;;2.42;89.48;100338.19;106801;1289;71458;-79
2022/01/07 12:14:26;;;;;;;8.30;4.30;;;;;;;2.43;89.44;100331.80;106789;1290;74021;-76
2022/01/07 12:16:56;;;;;;;4.40;2.40;;;;;;;2.46;89.26;100337.91;106852;1289;62621;-78
2022/01/07 12:19:26;;;;;;;7.90;3.30;;;;;;;2.48;89.04;100335.63;106892;1290;61398;-76